createdAt,value
2018-05-02T00:01:23.122Z,16.20
2018-05-02T00:03:50.636Z,16.10
2018-05-02T00:06:18.177Z,16.20
2018-05-02T00:08:45.707Z,16.10
2018-05-02T00:11:13.319Z,16.00
2018-05-02T00:13:41.588Z,15.90
2018-05-02T00:16:09.922Z,15.80
2018-05-02T00:18:37.432Z,15.70
2018-05-02T00:21:04.933Z,15.70
2018-05-02T00:23:32.483Z,15.60
2018-05-02T00:25:59.998Z,15.50
2018-05-02T00:28:27.548Z,15.40
2018-05-02T00:30:55.048Z,15.40
2018-05-02T00:33:22.594Z,15.30
2018-05-02T00:35:50.104Z,15.20
2018-05-02T00:38:18.399Z,15.20
2018-05-02T00:40:45.908Z,15.10
2018-05-02T00:43:13.452Z,15.20
2018-05-02T00:45:40.971Z,15.20
2018-05-02T00:48:08.524Z,15.20
2018-05-02T00:50:36.036Z,15.20
2018-05-02T00:53:03.580Z,15.20
2018-05-02T00:55:31.860Z,15.20
2018-05-02T00:57:59.420Z,15.20
2018-05-02T01:00:26.915Z,15.20
2018-05-02T01:02:54.474Z,15.20
2018-05-02T01:05:21.975Z,15.20
2018-05-02T01:07:49.482Z,15.20
2018-05-02T01:10:17.037Z,15.10
2018-05-02T01:12:44.532Z,15.10
2018-05-02T01:15:12.095Z,15.10
2018-05-02T01:17:39.595Z,15.00
2018-05-02T01:20:07.155Z,15.00
2018-05-02T01:22:34.655Z,15.00
2018-05-02T01:25:02.199Z,15.00
2018-05-02T01:27:29.703Z,14.90
2018-05-02T01:29:57.239Z,14.90
2018-05-02T01:32:25.507Z,14.90
2018-05-02T01:34:53.043Z,14.80
2018-05-02T01:37:20.555Z,14.80
2018-05-02T01:39:48.097Z,14.70
2018-05-02T01:42:15.603Z,14.80
2018-05-02T01:44:43.152Z,14.70
2018-05-02T01:47:10.656Z,14.60
2018-05-02T01:49:38.199Z,14.60
2018-05-02T01:52:05.704Z,14.50
2018-05-02T01:54:33.244Z,14.50
2018-05-02T01:57:00.812Z,14.50
2018-05-02T01:59:28.319Z,14.50
2018-05-02T02:01:55.852Z,14.50
2018-05-02T02:04:23.371Z,14.40
2018-05-02T02:06:50.912Z,14.40
2018-05-02T02:09:18.406Z,14.40
2018-05-02T02:11:45.944Z,14.40
2018-05-02T02:14:13.450Z,14.40
2018-05-02T02:16:41.002Z,14.40
2018-05-02T02:19:08.508Z,14.40
2018-05-02T02:21:36.051Z,14.30
2018-05-02T02:24:03.553Z,14.30
2018-05-02T02:26:31.088Z,14.20
2018-05-02T02:28:58.616Z,14.20
2018-05-02T02:31:26.160Z,14.20
2018-05-02T02:33:54.483Z,14.10
2018-05-02T02:36:22.002Z,14.10
2018-05-02T02:38:49.516Z,14.10
2018-05-02T02:41:17.078Z,14.00
2018-05-02T02:43:44.600Z,13.90
2018-05-02T02:46:12.159Z,13.90
2018-05-02T02:48:39.671Z,13.80
2018-05-02T02:51:07.226Z,13.80
2018-05-02T02:53:34.726Z,13.80
2018-05-02T02:56:03.004Z,13.70
2018-05-02T02:58:30.552Z,13.70
2018-05-02T03:00:58.071Z,13.70
2018-05-02T03:03:25.609Z,13.60
2018-05-02T03:05:53.107Z,13.60
2018-05-02T03:08:20.645Z,13.60
2018-05-02T03:10:48.142Z,13.60
2018-05-02T03:13:16.440Z,13.40
2018-05-02T03:15:43.996Z,13.30
2018-05-02T03:18:11.535Z,13.30
2018-05-02T03:20:39.055Z,13.20
2018-05-02T03:23:06.610Z,13.30
2018-05-02T03:25:34.897Z,13.30
2018-05-02T03:28:02.529Z,13.20
2018-05-02T03:30:30.031Z,13.30
2018-05-02T03:32:57.571Z,13.20
2018-05-02T03:35:25.083Z,13.10
2018-05-02T03:37:52.631Z,13.10
2018-05-02T03:40:20.919Z,13.10
2018-05-02T03:42:49.232Z,13.10
2018-05-02T03:45:16.741Z,13.10
2018-05-02T03:47:44.311Z,13.20
2018-05-02T03:50:12.592Z,13.20
2018-05-02T03:52:40.871Z,13.20
2018-05-02T03:55:09.179Z,13.20
2018-05-02T03:57:36.695Z,13.20
2018-05-02T04:00:15.972Z,13.20
2018-05-02T04:03:06.163Z,13.20
2018-05-02T04:05:45.332Z,13.20
2018-05-02T04:08:12.875Z,13.20
2018-05-02T04:10:40.384Z,13.20
2018-05-02T04:13:08.651Z,13.20
2018-05-02T04:15:36.967Z,13.20
2018-05-02T04:18:04.494Z,13.20
2018-05-02T04:20:32.038Z,13.20
2018-05-02T04:23:00.316Z,13.20
2018-05-02T04:25:27.871Z,13.20
2018-05-02T04:27:55.383Z,13.20
2018-05-02T04:30:22.916Z,13.20
2018-05-02T04:32:50.432Z,13.20
2018-05-02T04:35:17.975Z,13.20
2018-05-02T04:37:45.491Z,13.30
2018-05-02T04:40:13.023Z,13.30
2018-05-02T04:42:40.535Z,13.40
2018-05-02T04:45:08.144Z,13.40
2018-05-02T04:47:35.652Z,13.40
2018-05-02T04:50:03.159Z,13.50
2018-05-02T04:52:30.714Z,13.50
2018-05-02T04:54:58.249Z,13.60
2018-05-02T04:57:25.797Z,13.60
2018-05-02T04:59:53.311Z,13.70
2018-05-02T05:02:20.879Z,13.70
2018-05-02T05:04:49.165Z,13.90
2018-05-02T05:07:16.749Z,13.80
2018-05-02T05:09:44.270Z,13.90
2018-05-02T05:12:11.838Z,14.00
2018-05-02T05:14:39.334Z,14.10
2018-05-02T05:17:06.877Z,14.10
2018-05-02T05:19:34.392Z,14.20
2018-05-02T05:22:01.933Z,14.30
2018-05-02T05:24:29.439Z,14.30
2018-05-02T05:26:57.002Z,14.40
2018-05-02T05:29:24.523Z,14.40
2018-05-02T05:31:52.064Z,14.50
2018-05-02T05:34:19.563Z,14.60
2018-05-02T05:36:47.071Z,14.60
2018-05-02T05:39:15.391Z,14.80
2018-05-02T05:41:43.663Z,14.80
2018-05-02T05:44:11.955Z,14.90
2018-05-02T05:46:39.463Z,14.90
2018-05-02T05:49:07.788Z,15.00
2018-05-02T05:51:35.311Z,15.00
2018-05-02T05:54:02.879Z,15.10
2018-05-02T05:56:30.391Z,15.20
2018-05-02T05:58:57.961Z,15.20
2018-05-02T06:01:25.467Z,15.30
2018-05-02T06:03:53.044Z,15.40
2018-05-02T06:06:21.328Z,15.50
2018-05-02T06:08:48.871Z,15.50
2018-05-02T06:11:16.383Z,15.60
2018-05-02T06:13:43.923Z,15.70
2018-05-02T06:16:11.440Z,15.80
2018-05-02T06:18:38.999Z,15.90
2018-05-02T06:21:06.512Z,16.00
2018-05-02T06:23:34.940Z,16.10
2018-05-02T06:26:02.492Z,16.20
2018-05-02T06:28:30.057Z,16.20
2018-05-02T06:30:58.402Z,16.40
2018-05-02T06:33:25.945Z,16.40
2018-05-02T06:35:53.520Z,16.50
2018-05-02T06:38:21.090Z,16.70
2018-05-02T06:40:49.459Z,16.90
2018-05-02T06:43:17.020Z,16.90
2018-05-02T06:45:44.642Z,17.10
2018-05-02T06:48:12.165Z,17.20
2018-05-02T06:50:39.744Z,17.40
2018-05-02T06:53:07.328Z,17.60
2018-05-02T06:55:34.952Z,17.70
2018-05-02T06:58:02.866Z,17.90
2018-05-02T07:00:30.434Z,18.10
2018-05-02T07:02:57.988Z,18.20
2018-05-02T07:05:25.653Z,18.30
2018-05-02T07:07:53.252Z,18.40
2018-05-02T07:10:20.878Z,18.60
2018-05-02T07:12:48.440Z,18.70
2018-05-02T07:15:16.024Z,18.90
2018-05-02T07:17:43.620Z,19.00
2018-05-02T07:20:11.215Z,19.20
2018-05-02T07:22:38.791Z,19.40
2018-05-02T07:25:06.328Z,19.50
2018-05-02T07:27:33.939Z,19.60
2018-05-02T07:30:01.495Z,19.70
2018-05-02T07:32:29.168Z,19.90
2018-05-02T07:34:56.684Z,20.10
2018-05-02T07:37:24.232Z,20.20
2018-05-02T07:39:52.638Z,20.30
2018-05-02T07:42:20.272Z,20.40
2018-05-02T07:44:47.840Z,20.60
2018-05-02T07:47:15.367Z,20.70
2018-05-02T07:49:42.996Z,20.80
2018-05-02T07:52:10.597Z,21.00
2018-05-02T07:54:38.176Z,21.10
2018-05-02T07:57:05.786Z,21.30
2018-05-02T07:59:33.360Z,21.50
2018-05-02T08:02:00.962Z,21.60
2018-05-02T08:04:28.522Z,21.80
2018-05-02T08:06:56.175Z,22.00
2018-05-02T08:09:23.756Z,22.10
2018-05-02T08:11:51.392Z,22.20
2018-05-02T08:14:19.006Z,22.40
2018-05-02T08:16:46.550Z,22.60
2018-05-02T08:19:14.121Z,22.70
2018-05-02T08:21:41.786Z,22.90
2018-05-02T08:24:09.393Z,23.00
2018-05-02T08:26:36.927Z,23.10
2018-05-02T08:29:05.324Z,23.40
2018-05-02T08:31:32.832Z,23.40
2018-05-02T08:34:01.122Z,23.70
2018-05-02T08:36:28.726Z,23.60
2018-05-02T08:38:57.073Z,23.70
2018-05-02T08:41:24.649Z,23.70
2018-05-02T08:43:52.191Z,23.80
2018-05-02T08:46:19.782Z,23.80
2018-05-02T08:48:47.343Z,23.90
2018-05-02T08:51:14.972Z,24.00
2018-05-02T08:53:43.282Z,24.20
2018-05-02T08:56:10.852Z,24.20
2018-05-02T08:58:38.396Z,24.30
2018-05-02T09:01:06.004Z,24.30
2018-05-02T09:03:33.573Z,24.40
2018-05-02T09:06:01.201Z,24.50
2018-05-02T09:08:28.819Z,24.60
2018-05-02T09:10:57.164Z,24.90
2018-05-02T09:13:25.507Z,25.00
2018-05-02T09:15:53.166Z,25.00
2018-05-02T09:18:20.724Z,25.20
2018-05-02T09:20:48.262Z,25.30
2018-05-02T09:23:16.644Z,25.40
2018-05-02T09:25:44.222Z,25.40
2018-05-02T09:28:11.791Z,25.50
2018-05-02T09:30:39.319Z,25.50
2018-05-02T09:33:06.894Z,25.60
2018-05-02T09:35:34.462Z,25.70
2018-05-02T09:38:02.040Z,25.80
2018-05-02T09:40:29.619Z,25.90
2018-05-02T09:42:57.305Z,26.00
2018-05-02T09:45:24.859Z,26.00
2018-05-02T09:47:52.420Z,26.10
2018-05-02T09:50:19.962Z,26.10
2018-05-02T09:52:47.708Z,26.20
2018-05-02T09:55:15.233Z,26.10
2018-05-02T09:57:42.815Z,26.10
2018-05-02T10:00:10.346Z,26.00
2018-05-02T10:02:38.049Z,25.90
2018-05-02T10:05:05.575Z,25.90
2018-05-02T10:07:33.117Z,25.80
2018-05-02T10:10:00.728Z,25.90
2018-05-02T10:12:28.277Z,26.00
2018-05-02T10:14:55.955Z,26.10
2018-05-02T10:17:23.511Z,26.00
2018-05-02T10:19:51.091Z,26.20
2018-05-02T10:22:18.666Z,26.30
2018-05-02T10:24:46.257Z,26.60
2018-05-02T10:27:14.533Z,26.50
2018-05-02T10:29:42.880Z,26.60
2018-05-02T10:32:13.003Z,26.50
2018-05-02T10:34:40.647Z,26.50
2018-05-02T10:37:08.214Z,26.50
2018-05-02T10:39:36.564Z,26.60
2018-05-02T10:42:04.171Z,26.60
2018-05-02T10:44:32.533Z,26.90
2018-05-02T10:47:00.051Z,26.90
2018-05-02T10:49:27.613Z,27.00
2018-05-02T10:51:55.191Z,27.10
2018-05-02T10:54:22.758Z,27.00
2018-05-02T10:56:50.336Z,27.00
2018-05-02T10:59:17.863Z,27.00
2018-05-02T11:01:45.446Z,27.00
2018-05-02T11:04:12.959Z,26.90
2018-05-02T11:06:40.559Z,26.60
2018-05-02T11:09:08.852Z,26.90
2018-05-02T11:11:36.413Z,26.90
2018-05-02T11:14:03.964Z,27.00
2018-05-02T11:16:32.323Z,27.20
2018-05-02T11:19:00.615Z,27.30
2018-05-02T11:21:28.196Z,27.20
2018-05-02T11:23:55.772Z,27.50
2018-05-02T11:26:23.360Z,27.60
2018-05-02T11:28:50.868Z,27.80
2018-05-02T11:31:18.408Z,27.80
2018-05-02T11:33:45.981Z,28.00
2018-05-02T11:36:13.515Z,28.10
2018-05-02T11:38:41.058Z,28.20
2018-05-02T11:41:08.616Z,28.30
2018-05-02T11:43:36.189Z,28.40
2018-05-02T11:46:03.867Z,28.40
2018-05-02T11:48:31.462Z,28.60
2018-05-02T11:50:59.028Z,28.70
2018-05-02T11:53:26.659Z,29.00
2018-05-02T11:55:54.239Z,29.00
2018-05-02T11:58:21.795Z,28.90
2018-05-02T12:00:50.093Z,28.90
2018-05-02T12:03:18.433Z,29.00
2018-05-02T12:05:45.988Z,28.90
2018-05-02T12:08:13.573Z,28.90
2018-05-02T12:10:41.110Z,29.10
2018-05-02T12:13:08.695Z,29.10
2018-05-02T12:15:37.009Z,28.90
2018-05-02T12:18:04.537Z,28.80
2018-05-02T12:20:32.097Z,28.70
2018-05-02T12:23:00.371Z,28.60
2018-05-02T12:25:28.773Z,28.70
2018-05-02T12:27:56.360Z,28.60
2018-05-02T12:30:23.919Z,28.80
2018-05-02T12:32:51.446Z,28.50
2018-05-02T12:35:19.794Z,28.50
2018-05-02T12:37:47.381Z,28.40
2018-05-02T12:40:14.956Z,28.50
2018-05-02T12:42:42.485Z,28.50
2018-05-02T12:45:10.839Z,28.10
2018-05-02T12:47:38.462Z,28.10
2018-05-02T12:50:06.051Z,28.10
2018-05-02T12:52:33.608Z,28.10
2018-05-02T12:55:01.221Z,28.00
2018-05-02T12:57:28.798Z,28.10
2018-05-02T12:59:56.377Z,28.30
2018-05-02T13:02:23.932Z,28.40
2018-05-02T13:04:51.506Z,28.40
2018-05-02T13:07:19.064Z,28.40
2018-05-02T13:09:47.486Z,28.30
2018-05-02T13:12:15.085Z,28.20
2018-05-02T13:14:42.635Z,28.30
2018-05-02T13:17:10.241Z,28.20
2018-05-02T13:19:37.789Z,27.90
2018-05-02T13:22:05.377Z,27.70
2018-05-02T13:24:33.731Z,27.60
2018-05-02T13:27:01.277Z,27.50
2018-05-02T13:29:28.783Z,27.70
2018-05-02T13:31:56.323Z,27.70
2018-05-02T13:34:24.589Z,27.80
2018-05-02T13:36:52.115Z,27.70
2018-05-02T13:39:20.401Z,27.80
2018-05-02T13:41:47.948Z,27.80
2018-05-02T13:44:15.457Z,27.90
2018-05-02T13:46:43.003Z,28.10
2018-05-02T13:49:10.517Z,28.20
2018-05-02T13:51:38.825Z,28.30
2018-05-02T13:54:06.359Z,28.20
2018-05-02T13:56:33.931Z,28.20
2018-05-02T13:59:01.435Z,28.30
2018-05-02T14:01:28.933Z,28.30
2018-05-02T14:03:56.485Z,28.40
2018-05-02T14:06:24.761Z,28.40
2018-05-02T14:08:53.071Z,28.40
2018-05-02T14:11:20.587Z,28.30
2018-05-02T14:13:48.169Z,28.30
2018-05-02T14:16:15.688Z,28.20
2018-05-02T14:18:43.249Z,28.30
2018-05-02T14:21:10.776Z,28.30
2018-05-02T14:23:38.377Z,28.20
2018-05-02T14:26:05.986Z,28.10
2018-05-02T14:28:33.589Z,28.00
2018-05-02T14:31:01.144Z,27.80
2018-05-02T14:33:28.713Z,27.50
2018-05-02T14:35:57.061Z,27.20
2018-05-02T14:38:24.779Z,27.10
2018-05-02T14:40:52.322Z,27.00
2018-05-02T14:43:20.017Z,26.90
2018-05-02T14:45:47.585Z,26.80
2018-05-02T14:48:15.123Z,26.60
2018-05-02T14:50:42.714Z,26.60
2018-05-02T14:53:10.299Z,26.50
2018-05-02T14:55:37.852Z,26.40
2018-05-02T14:58:05.458Z,26.40
2018-05-02T15:00:33.023Z,26.40
2018-05-02T15:03:01.337Z,26.50
2018-05-02T15:05:28.987Z,26.40
2018-05-02T15:07:56.538Z,26.50
2018-05-02T15:10:24.144Z,26.50
2018-05-02T15:12:51.691Z,26.60
2018-05-02T15:15:19.299Z,26.60
2018-05-02T15:17:47.683Z,26.70
2018-05-02T15:20:15.280Z,26.60
2018-05-02T15:22:42.837Z,26.70
2018-05-02T15:25:10.492Z,26.70
2018-05-02T15:27:38.073Z,26.80
2018-05-02T15:30:05.680Z,26.90
2018-05-02T15:32:33.322Z,26.90
2018-05-02T15:35:00.946Z,27.00
2018-05-02T15:37:28.534Z,27.00
2018-05-02T15:39:56.132Z,26.90
2018-05-02T15:42:23.742Z,26.80
2018-05-02T15:44:51.328Z,26.60
2018-05-02T15:47:18.953Z,26.40
2018-05-02T15:49:46.576Z,26.30
2018-05-02T15:52:15.283Z,26.10
2018-05-02T15:54:42.887Z,26.00
2018-05-02T15:57:10.474Z,26.00
2018-05-02T15:59:38.057Z,25.90
2018-05-02T16:02:05.705Z,25.80
2018-05-02T16:04:33.999Z,25.60
2018-05-02T16:07:01.638Z,25.60
2018-05-02T16:09:29.729Z,25.60
2018-05-02T16:11:58.034Z,25.40
2018-05-02T16:14:25.591Z,25.30
2018-05-02T16:16:53.165Z,25.30
2018-05-02T16:19:20.763Z,25.20
2018-05-02T16:21:49.151Z,25.10
2018-05-02T16:24:16.714Z,25.10
2018-05-02T16:26:45.051Z,25.00
2018-05-02T16:29:12.555Z,24.90
2018-05-02T16:31:40.143Z,24.90
2018-05-02T16:34:07.715Z,24.90
2018-05-02T16:36:35.232Z,24.80
2018-05-02T16:39:03.564Z,24.60
2018-05-02T16:41:31.080Z,24.60
2018-05-02T16:43:58.632Z,24.50
2018-05-02T16:46:26.169Z,24.30
2018-05-02T16:48:53.743Z,24.10
2018-05-02T16:51:21.265Z,24.00
2018-05-02T16:53:49.056Z,23.80
2018-05-02T16:56:16.594Z,23.60
2018-05-02T16:58:44.139Z,23.50
2018-05-02T17:01:11.640Z,23.40
2018-05-02T17:03:39.973Z,23.10
2018-05-02T17:06:08.251Z,23.00
2018-05-02T17:08:35.810Z,22.90
2018-05-02T17:11:03.333Z,22.90
2018-05-02T17:13:30.856Z,22.70
2018-05-02T17:15:58.405Z,22.60
2018-05-02T17:18:25.904Z,22.50
2018-05-02T17:20:53.453Z,22.50
2018-05-02T17:23:21.738Z,22.20
2018-05-02T17:25:49.279Z,22.20
2018-05-02T17:28:16.795Z,22.20
2018-05-02T17:30:44.339Z,22.10
2018-05-02T17:33:11.852Z,22.00
2018-05-02T17:35:39.437Z,21.90
2018-05-02T17:38:06.965Z,21.80
2018-05-02T17:40:34.495Z,21.70
2018-05-02T17:43:02.019Z,21.70
2018-05-02T17:45:29.579Z,21.60
2018-05-02T17:47:57.093Z,21.60
2018-05-02T17:50:24.640Z,21.50
2018-05-02T17:52:53.025Z,21.40
2018-05-02T17:55:20.502Z,21.40
2018-05-02T17:57:48.069Z,21.30
2018-05-02T18:00:15.571Z,21.30
2018-05-02T18:02:43.117Z,21.30
2018-05-02T18:05:10.640Z,21.20
2018-05-02T18:07:38.204Z,21.10
2018-05-02T18:10:05.721Z,21.00
2018-05-02T18:12:33.276Z,21.00
2018-05-02T18:15:00.802Z,20.90
2018-05-02T18:17:28.370Z,20.90
2018-05-02T18:19:55.914Z,20.70
2018-05-02T18:22:23.481Z,20.70
2018-05-02T18:24:51.773Z,20.60
2018-05-02T18:27:19.306Z,20.60
2018-05-02T18:29:46.869Z,20.60
2018-05-02T18:32:15.169Z,20.50
2018-05-02T18:34:42.736Z,20.40
2018-05-02T18:37:10.248Z,20.40
2018-05-02T18:39:37.869Z,20.40
2018-05-02T18:42:05.401Z,20.30
2018-05-02T18:44:32.949Z,20.20
2018-05-02T18:47:01.311Z,20.10
2018-05-02T18:49:28.844Z,20.10
2018-05-02T18:51:56.379Z,20.00
2018-05-02T18:54:23.946Z,20.00
2018-05-02T18:56:51.470Z,19.90
2018-05-02T18:59:19.073Z,19.80
2018-05-02T19:01:46.645Z,19.80
2018-05-02T19:04:15.477Z,19.70
2018-05-02T19:06:43.005Z,19.60
2018-05-02T19:09:10.587Z,19.70
2018-05-02T19:11:38.108Z,19.60
2018-05-02T19:14:05.683Z,19.60
2018-05-02T19:16:33.187Z,19.50
2018-05-02T19:19:06.417Z,19.40
2018-05-02T19:21:33.943Z,19.40
2018-05-02T19:24:01.545Z,19.40
2018-05-02T19:26:34.817Z,19.40
2018-05-02T19:29:02.406Z,19.20
2018-05-02T19:31:35.569Z,19.10
2018-05-02T19:34:03.157Z,19.00
2018-05-02T19:36:30.714Z,18.90
2018-05-02T19:38:58.230Z,18.80
2018-05-02T19:41:31.360Z,18.80
2018-05-02T19:44:04.334Z,18.70
2018-05-02T19:46:31.921Z,18.60
2018-05-02T19:48:59.451Z,18.40
2018-05-02T19:51:32.694Z,18.30
2018-05-02T19:54:00.987Z,18.20
2018-05-02T19:56:28.901Z,18.10
2018-05-02T19:58:56.422Z,18.20
2018-05-02T20:01:29.571Z,18.10
2018-05-02T20:03:57.089Z,18.00
2018-05-02T20:06:24.696Z,17.90
2018-05-02T20:08:57.796Z,17.90
2018-05-02T20:11:31.809Z,17.90
2018-05-02T20:14:11.506Z,17.90
2018-05-02T20:16:39.847Z,17.50
2018-05-02T20:19:07.397Z,17.40
2018-05-02T20:21:34.959Z,17.30
2018-05-02T20:24:03.251Z,17.20
2018-05-02T20:26:30.796Z,17.10
2018-05-02T20:28:58.327Z,17.10
2018-05-02T20:31:25.891Z,17.00
2018-05-02T20:33:53.404Z,16.90
2018-05-02T20:36:20.921Z,16.90
2018-05-02T20:38:49.231Z,16.90
2018-05-02T20:41:16.771Z,16.80
2018-05-02T20:43:45.080Z,16.80
2018-05-02T20:46:12.884Z,16.70
2018-05-02T20:48:40.436Z,16.70
2018-05-02T20:51:08.164Z,16.70
2018-05-02T20:53:35.742Z,16.70
2018-05-02T20:56:03.250Z,16.70
2018-05-02T20:58:31.563Z,16.60
2018-05-02T21:00:59.085Z,16.50
2018-05-02T21:03:27.410Z,16.50
2018-05-02T21:05:54.920Z,16.40
2018-05-02T21:08:23.283Z,16.30
2018-05-02T21:10:50.814Z,16.30
2018-05-02T21:13:19.114Z,16.30
2018-05-02T21:15:46.614Z,16.30
2018-05-02T21:18:15.153Z,16.30
2018-05-02T21:20:43.910Z,16.40
2018-05-02T21:23:11.435Z,16.40
2018-05-02T21:25:38.974Z,16.40
2018-05-02T21:28:06.486Z,16.40
2018-05-02T21:30:34.800Z,16.40
2018-05-02T21:33:02.342Z,16.40
2018-05-02T21:35:29.916Z,16.40
2018-05-02T21:37:57.442Z,16.50
2018-05-02T21:40:24.991Z,16.50
2018-05-02T21:42:52.494Z,16.50
2018-05-02T21:45:20.039Z,16.50
2018-05-02T21:47:47.637Z,16.40
2018-05-02T21:50:15.102Z,16.40
2018-05-02T21:52:43.381Z,16.40
2018-05-02T21:55:10.936Z,16.30
2018-05-02T21:57:38.479Z,16.30
2018-05-02T22:00:06.756Z,16.30
2018-05-02T22:02:34.296Z,16.20
2018-05-02T22:05:01.815Z,16.30
2018-05-02T22:07:29.376Z,16.30
2018-05-02T22:09:56.892Z,16.30
2018-05-02T22:12:24.432Z,16.30
2018-05-02T22:14:51.943Z,16.30
2018-05-02T22:17:19.479Z,16.20
2018-05-02T22:19:46.997Z,16.20
2018-05-02T22:22:14.545Z,16.20
2018-05-02T22:24:42.052Z,16.20
2018-05-02T22:27:09.600Z,16.20
2018-05-02T22:29:37.120Z,16.20
2018-05-02T22:32:04.684Z,16.20
2018-05-02T22:34:32.963Z,16.20
2018-05-02T22:37:00.484Z,16.20
2018-05-02T22:39:28.028Z,16.20
2018-05-02T22:41:55.536Z,16.20
2018-05-02T22:44:23.084Z,16.20
2018-05-02T22:46:50.596Z,16.10
2018-05-02T22:49:18.160Z,16.20
2018-05-02T22:51:45.776Z,16.10
2018-05-02T22:54:13.332Z,16.10
2018-05-02T22:56:40.858Z,16.10
2018-05-02T22:59:08.409Z,16.10
2018-05-02T23:01:36.682Z,16.00
2018-05-02T23:04:04.980Z,16.00
2018-05-02T23:06:32.495Z,16.00
2018-05-02T23:09:00.026Z,16.00
2018-05-02T23:11:27.549Z,16.00
2018-05-02T23:13:55.084Z,15.90
2018-05-02T23:16:23.382Z,15.90
2018-05-02T23:18:50.956Z,15.90
2018-05-02T23:21:18.460Z,15.90
2018-05-02T23:23:45.972Z,15.90
2018-05-02T23:26:13.511Z,15.90
2018-05-02T23:28:41.035Z,15.90
2018-05-02T23:31:08.591Z,15.90
2018-05-02T23:33:36.135Z,15.80
2018-05-02T23:36:03.700Z,15.80
2018-05-02T23:38:31.212Z,15.80
2018-05-02T23:40:58.754Z,15.80
2018-05-02T23:43:26.267Z,15.80
2018-05-02T23:45:53.815Z,15.80
2018-05-02T23:48:21.336Z,15.70
2018-05-02T23:50:48.902Z,15.80
2018-05-02T23:53:17.179Z,15.70
2018-05-02T23:55:45.504Z,15.70
2018-05-02T23:58:13.019Z,15.70
